Time;durP1;ratioP1;P1;durP2;ratioP2;P2;SDS_P1;SDS_P2;PMS_P1;PMS_P2;Temp;Humidity;BMP_temperature;BMP_pressure;BME280_temperature;BME280_humidity;BME280_pressure;Samples;Min_cycle;Max_cycle;Signal;HPM_P1;HPM_P2
2021/06/11 00:01:59;;;;;;;7.18;5.40;;;13.20;99.90;;;11.95;94.28;101521.91;5006126;28;20072;-76
2021/06/11 00:04:24;;;;;;;8.43;5.75;;;13.10;99.90;;;11.88;94.97;101523.94;5005223;28;20060;-76
2021/06/11 00:06:50;;;;;;;5.55;3.70;;;13.10;99.90;;;11.77;95.58;101528.72;4994499;28;20072;-76
2021/06/11 00:09:17;;;;;;;3.97;3.25;;;12.80;99.90;;;11.48;94.83;101525.41;5021744;28;20122;-76
2021/06/11 00:11:45;;;;;;;7.75;3.97;;;12.60;99.90;;;11.33;96.46;101520.72;4980207;28;20070;-76
2021/06/11 00:14:14;;;;;;;4.18;3.67;;;12.60;99.90;;;11.31;96.62;101512.84;4990873;28;20071;-76
2021/06/11 00:16:40;;;;;;;10.13;5.72;;;12.60;99.90;;;11.39;96.88;101517.84;5019441;28;20085;-76
2021/06/11 00:19:06;;;;;;;11.68;6.85;;;12.70;99.90;;;11.45;97.99;101522.91;4998322;28;20072;-77
2021/06/11 00:21:32;;;;;;;9.20;6.22;;;12.70;99.90;;;11.48;98.32;101520.13;5011834;28;20569;-76
2021/06/11 00:23:58;;;;;;;10.65;7.10;;;12.70;99.90;;;11.49;97.81;101520.09;5012695;28;20060;-76
2021/06/11 00:26:24;;;;;;;9.23;6.40;;;12.70;99.90;;;11.52;97.63;101523.53;5012843;28;20099;-76
2021/06/11 00:28:52;;;;;;;10.85;7.43;;;12.80;99.90;;;11.56;97.69;101527.78;5019981;28;20136;-77
2021/06/11 00:31:17;;;;;;;13.10;8.25;;;12.80;99.90;;;11.59;97.84;101525.00;5035404;28;20066;-77
2021/06/11 00:33:43;;;;;;;14.73;9.75;;;12.90;99.90;;;11.68;98.28;101524.66;5019443;28;20066;-77
2021/06/11 00:36:09;;;;;;;15.30;9.95;;;13.00;99.90;;;11.75;98.80;101522.63;4998831;28;20408;-76
2021/06/11 00:38:35;;;;;;;17.98;9.50;;;13.00;99.90;;;11.84;99.89;101524.94;5011289;28;20077;-76
2021/06/11 00:41:01;;;;;;;14.73;8.93;;;13.10;99.90;;;11.85;99.74;101524.84;5002941;28;20070;-77
2021/06/11 00:43:27;;;;;;;12.40;7.45;;;13.00;99.90;;;11.86;98.84;101518.66;5004790;28;20069;-76
2021/06/11 00:45:53;;;;;;;13.60;8.30;;;13.10;99.90;;;11.87;98.68;101517.72;4988497;28;20519;-76
2021/06/11 00:48:19;;;;;;;12.73;7.45;;;13.10;99.90;;;11.89;99.50;101513.28;5008440;28;20507;-76
2021/06/11 00:50:45;;;;;;;12.45;9.25;;;13.10;99.90;;;11.92;98.26;101519.38;5020889;28;20067;-76
2021/06/11 00:53:11;;;;;;;13.60;9.13;;;13.10;99.90;;;11.93;98.80;101515.81;4992727;28;20107;-76
2021/06/11 00:55:43;;;;;;;12.88;9.10;;;13.20;99.90;;;11.93;98.93;101510.56;4989825;28;20116;-76
2021/06/11 00:58:15;;;;;;;12.35;9.65;;;13.10;99.90;;;11.93;98.92;101510.56;5004331;28;20074;-76
2021/06/11 01:00:42;;;;;;;13.65;10.27;;;13.10;99.90;;;11.91;99.21;101513.25;4981056;28;20058;-76
2021/06/11 01:03:11;;;;;;;14.85;8.75;;;13.10;99.90;;;11.86;99.25;101509.91;4979847;28;20418;-76
2021/06/11 01:05:41;;;;;;;16.02;9.88;;;13.00;99.90;;;11.80;98.75;101515.41;4999198;28;20618;-76
2021/06/11 01:08:07;;;;;;;9.82;7.93;;;13.00;99.90;;;11.75;98.50;101506.81;5003759;28;20064;-76
2021/06/11 01:10:34;;;;;;;11.93;8.88;;;13.00;99.90;;;11.74;99.65;101507.72;4984072;28;20531;-76
2021/06/11 01:13:01;;;;;;;12.38;8.95;;;13.00;99.90;;;11.70;100.00;101505.22;4997503;28;20252;-76
2021/06/11 01:15:27;;;;;;;11.05;7.50;;;13.00;99.90;;;11.70;100.00;101502.59;5018800;28;20564;-76
2021/06/11 01:17:54;;;;;;;10.18;7.30;;;13.00;99.90;;;11.65;100.00;101509.81;4987287;28;20589;-77
2021/06/11 01:20:22;;;;;;;12.00;7.88;;;12.90;99.90;;;11.63;99.83;101503.72;5013468;28;20124;-76
2021/06/11 01:23:37;;;;;;;11.35;7.80;;;12.80;99.90;;;11.64;99.56;101499.31;4996408;28;20156;-77
2021/06/11 01:26:29;;;;;;;9.38;7.00;;;12.90;99.90;;;11.61;98.89;101497.66;4997424;28;20108;-76
2021/06/11 01:29:09;;;;;;;8.82;6.60;;;12.80;99.90;;;11.58;98.86;101496.94;5022761;28;20070;-76
2021/06/11 01:31:40;;;;;;;8.38;6.32;;;12.70;99.90;;;11.34;95.33;101499.56;5015915;28;20058;-76
2021/06/11 01:34:24;;;;;;;6.95;5.45;;;12.50;99.90;;;11.15;95.86;101507.28;4995742;28;20216;-76
2021/06/11 01:36:57;;;;;;;7.45;4.82;;;12.30;99.90;;;10.98;95.58;101494.72;4999167;28;20147;-76
2021/06/11 01:39:25;;;;;;;7.07;4.68;;;12.10;99.90;;;10.89;95.00;101492.44;5035498;28;20610;-76
2021/06/11 01:41:56;;;;;;;8.90;6.00;;;12.10;99.90;;;10.82;96.41;101499.69;4983723;28;20145;-76
2021/06/11 01:44:25;;;;;;;8.57;3.88;;;12.00;99.90;;;10.64;94.84;101495.91;4968701;28;20639;-77
2021/06/11 01:46:57;;;;;;;5.80;4.30;;;11.80;99.90;;;10.43;94.11;101499.28;5017446;28;20078;-76
2021/06/11 01:49:28;;;;;;;7.57;5.55;;;11.70;99.90;;;10.30;95.31;101496.19;5007791;28;20069;-76
2021/06/11 01:52:00;;;;;;;8.68;6.25;;;11.60;99.90;;;10.29;95.46;101489.22;5035547;28;20260;-76
2021/06/11 01:54:29;;;;;;;6.45;5.00;;;11.60;99.90;;;10.29;95.31;101494.47;5030969;28;20066;-76
2021/06/11 01:56:56;;;;;;;8.00;5.00;;;11.50;99.90;;;10.26;95.25;101491.94;4983598;28;20065;-76
2021/06/11 01:59:23;;;;;;;7.95;5.70;;;11.60;99.90;;;10.29;97.09;101489.22;5009953;28;20675;-76
2021/06/11 02:01:51;;;;;;;10.57;6.22;;;11.60;99.90;;;10.32;96.93;101499.63;4999500;28;20433;-76
2021/06/11 02:04:18;;;;;;;11.10;7.03;;;11.60;99.90;;;10.30;97.09;101504.06;4987897;28;20071;-76
2021/06/11 02:06:45;;;;;;;8.57;6.28;;;11.60;99.90;;;10.28;97.82;101498.00;5008006;28;20075;-76
2021/06/11 02:09:12;;;;;;;13.13;8.35;;;11.50;99.90;;;10.23;97.32;101498.13;5033066;28;20093;-76
2021/06/11 02:11:41;;;;;;;8.98;6.07;;;11.50;99.90;;;10.24;97.87;101494.59;4990799;28;20065;-76
2021/06/11 02:14:12;;;;;;;8.18;5.90;;;11.60;99.90;;;10.29;97.59;101496.22;5006044;28;20534;-76
2021/06/11 02:16:39;;;;;;;13.40;8.43;;;11.60;99.90;;;10.29;97.70;101494.47;5014929;28;20067;-76
2021/06/11 02:19:06;;;;;;;9.98;8.27;;;11.60;99.90;;;10.29;98.79;101494.47;5000422;28;20071;-77
2021/06/11 02:21:32;;;;;;;14.23;8.30;;;11.60;99.90;;;10.33;100.00;101493.47;5024333;28;20099;-76
2021/06/11 02:23:59;;;;;;;15.20;9.02;;;11.70;99.90;;;10.37;99.66;101492.47;4974098;28;20250;-76
2021/06/11 02:26:28;;;;;;;12.80;8.60;;;11.70;99.90;;;10.40;99.83;101494.97;5007621;28;20139;-76
2021/06/11 02:28:54;;;;;;;11.57;8.60;;;11.70;99.90;;;10.44;99.18;101498.38;4997284;28;20538;-76
2021/06/11 02:31:21;;;;;;;11.30;7.00;;;11.70;99.90;;;10.49;99.69;101496.44;5002331;28;20075;-76
2021/06/11 02:33:47;;;;;;;11.38;8.82;;;11.80;99.90;;;10.53;100.00;101497.19;4998305;28;20064;-77
2021/06/11 02:36:14;;;;;;;12.35;9.05;;;11.80;99.90;;;10.52;100.00;101500.72;5005123;28;20069;-76
2021/06/11 02:38:39;;;;;;;9.57;6.90;;;11.80;99.90;;;10.40;99.42;101500.25;5021616;28;20110;-76
2021/06/11 02:41:08;;;;;;;7.80;6.03;;;11.70;99.90;;;10.37;99.00;101502.13;4995702;28;20064;-76
2021/06/11 02:43:40;;;;;;;9.23;6.00;;;11.60;99.90;;;10.32;98.92;101510.16;5016647;28;21282;-76
2021/06/11 02:46:38;;;;;;;12.15;6.75;;;11.60;99.90;;;10.32;98.87;101498.78;5006130;28;20094;-76
2021/06/11 02:49:19;;;;;;;10.70;6.25;;;11.70;99.90;;;10.35;98.16;101504.81;5006843;28;20154;-77
2021/06/11 02:51:52;;;;;;;11.07;6.88;;;11.70;99.90;;;10.40;98.83;101500.25;5016085;28;20055;-76
2021/06/11 02:54:33;;;;;;;11.02;7.55;;;11.70;99.90;;;10.48;98.80;101493.88;5021618;28;20675;-76
2021/06/11 02:57:25;;;;;;;10.07;6.82;;;11.90;99.90;;;10.61;99.85;101497.81;5035883;28;20058;-76
2021/06/11 03:00:11;;;;;;;13.57;8.77;;;12.00;99.90;;;10.76;100.00;101504.31;5021670;28;20066;-76
2021/06/11 03:02:43;;;;;;;13.63;9.68;;;12.10;99.90;;;10.87;100.00;101502.16;5014179;28;20089;-76
2021/06/11 03:05:11;;;;;;;17.08;10.15;;;12.30;99.90;;;11.02;100.00;101498.97;5001779;28;20087;-76
2021/06/11 03:07:40;;;;;;;11.57;8.18;;;12.40;99.90;;;11.05;100.00;101504.13;5013832;28;20479;-76
2021/06/11 03:10:09;;;;;;;9.70;7.22;;;12.40;99.90;;;11.04;100.00;101506.84;5012296;28;20072;-76
2021/06/11 03:12:38;;;;;;;9.88;6.93;;;12.40;99.90;;;11.08;100.00;101505.81;4978907;28;20151;-76
2021/06/11 03:15:07;;;;;;;10.20;7.95;;;12.40;99.90;;;11.14;99.74;101512.63;4965316;28;20459;-77
2021/06/11 03:17:48;;;;;;;13.20;9.55;;;12.50;99.90;;;11.21;100.00;101512.34;4992830;28;20449;-76
2021/06/11 03:20:21;;;;;;;17.13;10.35;;;12.60;99.90;;;11.32;100.00;101508.44;4999944;28;20068;-76
2021/06/11 03:23:08;;;;;;;15.23;9.88;;;12.70;99.90;;;11.50;100.00;101513.03;5001762;28;20082;-76
2021/06/11 03:25:49;;;;;;;14.32;11.00;;;12.90;99.90;;;11.65;100.00;101507.16;4978337;28;20086;-76
2021/06/11 03:28:25;;;;;;;18.35;10.50;;;13.10;99.90;;;11.83;99.34;101502.94;4995144;28;20088;-76
2021/06/11 03:30:58;;;;;;;14.88;10.40;;;13.30;99.90;;;12.00;99.12;101509.38;4976222;28;20646;-77
2021/06/11 03:33:39;;;;;;;13.68;9.98;;;13.50;99.90;;;12.21;99.07;101505.00;4968842;28;20077;-76
2021/06/11 03:36:29;;;;;;;14.00;9.60;;;13.60;99.90;;;12.40;98.75;101505.97;5000864;28;20120;-77
2021/06/11 03:39:03;;;;;;;17.17;10.70;;;13.80;99.90;;;12.50;98.43;101496.75;4990920;28;20059;-76
2021/06/11 03:41:32;;;;;;;16.92;9.18;;;13.90;99.90;;;12.61;98.72;101498.94;4984471;28;20066;-76
2021/06/11 03:43:58;;;;;;;15.23;9.77;;;14.10;99.90;;;12.76;98.75;101502.66;5015038;28;20056;-76
2021/06/11 03:46:31;;;;;;;13.40;10.32;;;14.40;99.90;;;13.28;98.90;101505.69;4988603;28;20404;-76
2021/06/11 03:49:00;;;;;;;13.85;9.68;;;15.60;99.90;;;14.51;94.82;101499.78;5015402;28;20073;-76
2021/06/11 03:51:28;;;;;;;12.55;8.15;;;17.20;99.90;;;15.89;89.01;101494.22;4989430;28;20067;-76
2021/06/11 03:53:57;;;;;;;8.68;6.70;;;18.90;99.90;;;17.31;82.86;101499.97;5011967;28;20116;-77
2021/06/11 03:56:25;;;;;;;7.50;5.50;;;20.30;99.90;;;18.50;77.22;101494.97;4996913;28;20488;-77
2021/06/11 03:58:52;;;;;;;8.85;5.18;;;21.30;99.90;;;19.40;71.65;101494.03;5017678;28;21827;-77
2021/06/11 04:01:26;;;;;;;6.32;4.90;;;22.10;99.90;;;20.10;69.51;101489.84;5024754;28;20029;-77
2021/06/11 04:03:54;;;;;;;8.88;5.53;;;22.60;99.90;;;20.53;68.54;101485.75;5020419;28;20020;-77
2021/06/11 04:06:29;;;;;;;9.07;5.38;;;22.90;99.90;;;20.90;66.93;101489.13;5035815;28;20029;-76
2021/06/11 04:09:06;;;;;;;7.88;5.78;;;23.20;99.90;;;21.20;65.72;101487.69;5004619;28;20084;-77
2021/06/11 04:11:41;;;;;;;11.32;5.20;;;23.20;99.90;;;20.58;65.70;101494.31;5018998;28;20108;-77
2021/06/11 04:14:08;;;;;;;7.72;5.70;;;22.90;99.90;;;20.57;66.28;101495.25;5020711;28;20022;-77
2021/06/11 04:16:45;;;;;;;6.65;5.38;;;23.30;99.90;;;21.47;64.01;101492.72;5012667;28;20047;-77
2021/06/11 04:19:27;;;;;;;5.82;4.72;;;23.80;99.90;;;22.52;58.77;101487.63;4994848;28;20033;-77
2021/06/11 04:21:59;;;;;;;8.50;4.55;;;25.00;99.90;;;22.84;57.24;101490.22;5011842;28;20040;-77
2021/06/11 04:24:36;;;;;;;7.90;4.70;;;24.90;99.90;;;22.52;57.30;101485.78;4990231;28;20040;-77
2021/06/11 04:27:03;;;;;;;6.88;4.90;;;23.80;99.90;;;20.73;62.25;101490.44;5002555;28;20036;-77
2021/06/11 04:29:31;;;;;;;8.02;5.30;;;22.60;99.90;;;20.08;65.32;101492.63;5021444;28;20037;-77
2021/06/11 04:31:59;;;;;;;5.97;4.85;;;21.40;99.90;;;18.90;70.64;101498.47;4989639;28;20032;-77
2021/06/11 04:34:27;;;;;;;7.88;5.78;;;20.20;99.90;;;18.20;72.20;101507.56;4976292;28;20512;-77
2021/06/11 04:36:54;;;;;;;8.90;5.85;;;19.70;99.90;;;18.08;74.36;101496.88;4974332;28;20053;-77
2021/06/11 04:39:22;;;;;;;9.93;6.28;;;19.50;99.90;;;17.93;75.83;101499.63;4975658;28;20040;-77
2021/06/11 04:41:48;;;;;;;8.00;5.55;;;19.40;99.90;;;18.09;75.45;101498.59;4981035;28;20746;-77
2021/06/11 04:44:14;;;;;;;8.18;6.28;;;19.30;99.90;;;17.91;75.39;101495.34;4967957;28;20022;-77
2021/06/11 04:46:43;;;;;;;8.10;5.97;;;19.20;99.90;;;17.88;74.46;101495.53;4992813;28;20048;-77
2021/06/11 04:49:09;;;;;;;10.23;6.70;;;19.30;99.90;;;17.94;73.72;101503.13;4996309;28;20138;-77
2021/06/11 04:51:36;;;;;;;9.00;6.30;;;19.50;99.90;;;18.15;74.99;101498.19;4995202;28;20112;-77
2021/06/11 04:54:03;;;;;;;8.90;5.93;;;19.60;99.90;;;18.37;73.51;101481.63;5000929;28;20025;-77
2021/06/11 04:56:29;;;;;;;8.40;5.75;;;19.90;99.90;;;18.71;72.80;101482.84;4976909;28;20363;-77
2021/06/11 04:58:59;;;;;;;8.48;5.63;;;20.30;99.90;;;19.17;69.84;101476.97;5000468;28;20041;-77
2021/06/11 05:01:25;;;;;;;9.02;6.00;;;20.40;99.90;;;19.27;69.27;101474.53;4992336;28;20033;-77
2021/06/11 05:03:52;;;;;;;10.90;5.82;;;20.60;99.90;;;19.40;69.05;101480.69;4967457;28;20017;-77
2021/06/11 05:06:18;;;;;;;9.45;5.70;;;20.70;99.90;;;19.51;69.54;101477.25;4986500;28;20121;-77
2021/06/11 05:08:46;;;;;;;8.82;5.57;;;20.90;99.90;;;19.76;68.33;101476.34;4990844;28;20426;-77
2021/06/11 05:11:14;;;;;;;7.38;4.75;;;21.10;99.90;;;19.98;68.08;101477.44;4975669;28;20017;-77
2021/06/11 05:13:40;;;;;;;10.02;5.90;;;;;;;20.35;65.59;101480.00;4964536;28;20156;-77
2021/06/11 05:16:07;;;;;;;6.78;5.35;;;22.00;99.90;;;21.06;62.14;101473.59;4994803;28;20025;-77
2021/06/11 05:18:33;;;;;;;7.22;5.80;;;22.90;99.90;;;22.34;56.88;101459.69;5010632;28;20564;-77
2021/06/11 05:20:59;;;;;;;7.68;5.70;;;24.50;99.90;;;24.06;54.13;101466.00;5016146;28;20553;-77
2021/06/11 05:23:26;;;;;;;7.78;5.90;;;26.10;99.90;;;25.66;47.45;101466.94;4987472;28;20502;-77
2021/06/11 05:25:52;;;;;;;6.53;5.20;;;27.40;99.60;;;26.72;47.25;101457.13;4989349;28;20500;-77
2021/06/11 05:28:21;;;;;;;6.25;5.30;;;29.10;93.30;;;27.56;42.73;101462.72;5017852;28;20393;-77
2021/06/11 05:30:50;;;;;;;5.80;5.20;;;29.80;91.30;;;28.39;39.63;101465.38;5013436;28;20514;-77
2021/06/11 05:33:16;;;;;;;6.28;5.30;;;30.60;89.20;;;29.11;39.36;101453.75;5004135;28;20053;-77
2021/06/11 05:35:42;;;;;;;6.38;5.00;;;31.40;83.50;;;29.61;37.96;101462.47;5013539;28;20120;-77
2021/06/11 05:38:08;;;;;;;7.80;5.13;;;31.30;80.90;;;29.83;36.61;101458.97;5030211;28;20021;-78
2021/06/11 05:40:35;;;;;;;6.05;4.95;;;30.40;81.70;;;29.34;38.03;101461.94;5011921;28;20131;-75
2021/06/11 05:43:03;;;;;;;6.32;4.82;;;31.10;84.50;;;29.95;37.58;101455.84;5019972;28;20045;-76
2021/06/11 05:45:30;;;;;;;7.80;4.80;;;31.40;79.00;;;30.01;35.57;101453.22;4995025;28;20033;-76
2021/06/11 05:47:58;;;;;;;6.43;4.80;;;30.60;81.00;;;29.20;37.63;101458.13;4987527;28;20030;-76
2021/06/11 05:50:27;;;;;;;7.35;5.10;;;30.30;82.90;;;28.39;39.19;101459.97;5019546;28;20045;-76
2021/06/11 05:52:55;;;;;;;6.15;5.00;;;30.80;81.90;;;29.37;37.97;101455.31;4993699;28;20037;-76
2021/06/11 05:55:22;;;;;;;7.65;5.13;;;31.20;80.50;;;29.08;38.10;101456.78;5017698;28;20034;-76
2021/06/11 05:57:48;;;;;;;6.72;5.05;;;30.90;80.40;;;28.52;40.08;101458.63;4998403;28;20037;-76
2021/06/11 06:00:14;;;;;;;6.38;4.93;;;29.20;84.50;;;26.85;44.95;101462.09;4982471;28;20385;-75
2021/06/11 06:02:41;;;;;;;6.65;5.57;;;29.80;84.70;;;28.62;39.58;101449.31;4998170;28;20054;-75
2021/06/11 06:05:08;;;;;;;6.50;5.38;;;29.50;79.90;;;27.16;40.74;101448.06;4990347;28;20034;-76
2021/06/11 06:07:38;;;;;;;8.05;5.63;;;28.70;82.70;;;26.48;42.70;101446.97;5002025;28;20116;-75
2021/06/11 06:10:08;;;;;;;6.43;4.82;;;28.30;86.00;;;27.06;43.49;101444.63;5005946;28;20021;-75
2021/06/11 06:12:34;;;;;;;5.30;4.78;;;29.00;85.10;;;27.46;41.62;101445.81;5031962;28;20041;-76
2021/06/11 06:15:03;;;;;;;7.72;5.72;;;29.50;81.50;;;27.15;40.98;101439.09;5001330;28;20021;-76
2021/06/11 06:17:35;;;;;;;7.88;5.72;;;29.60;83.20;;;27.90;39.55;101449.13;5001314;28;20034;-76
2021/06/11 06:20:08;;;;;;;7.72;6.00;;;28.80;83.30;;;26.43;42.70;101449.28;4996955;28;20098;-76
2021/06/11 06:22:34;;;;;;;9.88;6.43;;;28.40;85.00;;;26.09;44.29;101458.16;5003409;28;20061;-75
2021/06/11 06:25:00;;;;;;;8.10;5.93;;;28.10;87.30;;;25.73;44.01;101455.41;5011924;28;20026;-75
2021/06/11 06:27:26;;;;;;;7.63;5.70;;;28.00;87.80;;;26.76;42.84;101449.53;5016917;28;20400;-75
2021/06/11 06:29:52;;;;;;;7.43;5.40;;;28.30;84.40;;;26.57;43.36;101450.63;4999319;28;20102;-77
2021/06/11 06:32:18;;;;;;;8.20;5.43;;;28.00;86.70;;;26.04;44.25;101454.22;4992143;28;20029;-77
2021/06/11 06:34:46;;;;;;;8.10;6.30;;;27.30;87.10;;;25.23;45.51;101458.56;4992622;28;20050;-77
2021/06/11 06:37:14;;;;;;;7.38;5.85;;;26.90;87.40;;;24.97;46.46;101455.69;5017693;28;20040;-77
2021/06/11 06:39:41;;;;;;;7.60;5.60;;;26.70;88.80;;;25.58;45.41;101462.34;5012568;28;20018;-77
2021/06/11 06:42:07;;;;;;;8.80;5.47;;;27.80;88.50;;;26.68;43.70;101453.03;5003263;28;20045;-77
2021/06/11 06:44:33;;;;;;;8.23;5.55;;;28.60;86.80;;;27.22;41.49;101455.53;5009998;28;20374;-76
2021/06/11 06:47:00;;;;;;;6.93;5.15;;;28.50;84.80;;;27.02;42.52;101454.94;4997810;28;20443;-77
2021/06/11 06:49:26;;;;;;;9.50;5.65;;;28.80;83.80;;;27.89;40.20;101455.56;5011212;28;20112;-76
2021/06/11 06:51:52;;;;;;;5.72;5.10;;;29.10;83.80;;;28.47;39.92;101458.25;4995546;28;20359;-77
2021/06/11 06:54:19;;;;;;;7.95;5.05;;;30.10;83.60;;;29.50;38.95;101452.88;4989141;28;20048;-77
2021/06/11 06:56:45;;;;;;;6.07;5.25;;;31.10;80.00;;;29.88;36.94;101455.72;4992974;28;20611;-77
2021/06/11 06:59:10;;;;;;;6.22;5.30;;;30.60;78.20;;;27.74;38.90;101458.06;5015676;28;20033;-77
2021/06/11 07:01:36;;;;;;;6.68;5.35;;;29.10;81.80;;;26.89;40.76;101454.50;4998861;28;20030;-77
2021/06/11 07:04:02;;;;;;;10.93;6.05;;;28.10;83.70;;;26.23;42.77;101459.44;5022985;28;20025;-77
2021/06/11 07:06:31;;;;;;;7.40;5.95;;;27.40;83.70;;;25.69;43.20;101461.28;4997216;28;20025;-77
2021/06/11 07:08:57;;;;;;;7.15;5.57;;;26.90;86.20;;;25.28;45.24;101458.13;5022227;28;20461;-77
2021/06/11 07:11:25;;;;;;;8.45;5.70;;;27.30;88.40;;;27.14;43.25;101450.06;5023202;28;20040;-77
2021/06/11 07:13:52;;;;;;;7.78;5.30;;;28.50;82.80;;;27.38;40.71;101452.88;5008783;28;20017;-77
2021/06/11 07:16:17;;;;;;;7.82;5.07;;;28.30;84.50;;;27.79;40.28;101447.56;5011969;28;20029;-77
2021/06/11 07:18:44;;;;;;;8.85;6.07;;;29.00;81.20;;;27.83;37.62;101448.94;4999700;28;20045;-76
2021/06/11 07:21:12;;;;;;;8.30;5.45;;;28.60;82.70;;;27.13;40.46;101446.53;5036813;28;20159;-76
2021/06/11 07:23:37;;;;;;;7.60;5.82;;;28.30;81.40;;;26.42;40.31;101454.88;5015665;28;20049;-76
2021/06/11 07:26:07;;;;;;;9.65;5.22;;;27.70;83.20;;;26.35;41.61;101455.50;5020816;28;20029;-77
2021/06/11 07:28:35;;;;;;;7.95;5.57;;;27.20;84.80;;;26.55;40.95;101452.59;5004789;28;20501;-76
2021/06/11 07:31:02;;;;;;;8.90;5.88;;;27.20;85.70;;;26.01;40.42;101460.78;5005543;28;20402;-76
2021/06/11 07:33:28;;;;;;;9.80;5.50;;;26.70;87.50;;;25.75;43.30;101456.13;5013852;28;20563;-76
2021/06/11 07:35:56;;;;;;;9.00;5.88;;;26.90;86.90;;;26.20;41.81;101451.66;5020790;28;20112;-76
2021/06/11 07:38:24;;;;;;;6.60;5.10;;;27.60;84.60;;;26.48;40.89;101446.97;5022525;28;20427;-76
2021/06/11 07:40:52;;;;;;;8.25;5.20;;;27.10;84.70;;;25.98;41.85;101447.56;5011130;28;20033;-76
2021/06/11 07:43:22;;;;;;;11.73;6.10;;;26.70;86.10;;;25.68;42.37;101451.47;5022212;28;20505;-76
2021/06/11 07:45:50;;;;;;;8.23;5.75;;;26.80;87.50;;;26.02;44.15;101456.22;5000262;28;20080;-76
2021/06/11 07:48:19;;;;;;;10.40;5.82;;;26.60;87.80;;;25.73;42.70;101454.56;4984172;28;20048;-77
2021/06/11 07:50:45;;;;;;;8.60;5.60;;;26.60;86.10;;;25.96;41.82;101455.84;4985616;28;20029;-77
2021/06/11 07:53:11;;;;;;;7.68;4.90;;;27.20;87.10;;;25.94;41.82;101451.59;4981588;28;20026;-76
2021/06/11 07:55:37;;;;;;;12.70;5.32;;;27.00;85.40;;;26.34;39.97;101452.94;4993218;28;20032;-77
2021/06/11 07:58:03;;;;;;;6.63;4.97;;;27.10;84.80;;;25.75;42.10;101457.97;5002658;28;20030;-77
2021/06/11 08:00:29;;;;;;;6.07;4.70;;;27.10;86.50;;;26.26;41.81;101453.72;4978580;28;20382;-77
2021/06/11 08:02:57;;;;;;;8.27;4.90;;;27.20;85.70;;;25.99;43.38;101452.00;4988796;28;20497;-77
2021/06/11 08:05:25;;;;;;;8.55;4.95;;;26.80;87.40;;;25.38;43.38;101459.75;4997178;28;20567;-76
2021/06/11 08:07:51;;;;;;;8.98;5.22;;;26.70;90.10;;;25.60;43.42;101462.19;4992067;28;20072;-77
2021/06/11 08:10:18;;;;;;;6.70;5.35;;;26.50;87.60;;;25.51;44.44;101463.94;4986744;28;20038;-77
2021/06/11 08:12:44;;;;;;;7.95;4.80;;;27.20;88.00;;;26.00;42.28;101467.16;5002833;28;20084;-76
2021/06/11 08:15:11;;;;;;;7.45;3.97;;;27.60;85.10;;;27.04;40.31;101458.31;4992734;28;20026;-76
2021/06/11 08:17:38;;;;;;;6.78;3.83;;;28.30;82.80;;;27.71;38.87;101458.41;5000563;28;20516;-77
2021/06/11 08:20:11;;;;;;;5.22;3.65;;;28.40;83.10;;;27.27;40.32;101460.47;5002448;28;20413;-77
2021/06/11 08:22:38;;;;;;;5.75;3.65;;;28.20;83.10;;;27.22;40.32;101460.94;5000577;28;21383;-77
2021/06/11 08:25:09;;;;;;;5.22;4.03;;;28.40;83.00;;;26.94;41.97;101468.41;4993251;28;20152;-76
2021/06/11 08:27:38;;;;;;;7.72;3.88;;;28.20;82.90;;;27.47;39.70;101458.31;4999204;28;20026;-77
2021/06/11 08:30:08;;;;;;;7.28;4.82;;;28.40;82.90;;;26.79;40.99;101454.63;4995644;28;20237;-76
2021/06/11 08:32:35;;;;;;;6.43;4.57;;;27.80;84.10;;;26.66;40.21;101452.34;5012442;28;20057;-76
2021/06/11 08:35:02;;;;;;;6.43;4.82;;;27.60;83.70;;;26.25;41.17;101462.00;5026294;28;20119;-77
2021/06/11 08:37:28;;;;;;;7.25;4.80;;;27.50;85.80;;;26.14;43.40;101455.81;5013305;28;20501;-77
2021/06/11 08:39:56;;;;;;;10.38;4.90;;;27.80;86.70;;;27.15;41.50;101455.31;5011886;28;20045;-77
2021/06/11 08:42:30;;;;;;;6.78;4.82;;;27.70;83.40;;;26.40;41.60;101449.63;5015039;28;20113;-77
2021/06/11 08:45:09;;;;;;;10.18;5.38;;;27.20;84.60;;;26.38;41.95;101452.47;5030310;28;20464;-77
2021/06/11 08:47:37;;;;;;;9.48;5.10;;;27.30;86.60;;;26.02;42.80;101461.63;5025828;28;20544;-75
2021/06/11 08:50:04;;;;;;;10.10;4.85;;;26.80;88.40;;;25.63;43.60;101461.88;5034648;28;20068;-75
2021/06/11 08:52:31;;;;;;;6.93;4.50;;;25.80;89.60;;;24.31;47.45;101467.28;5011743;28;20342;-75
2021/06/11 08:54:58;;;;;;;7.63;4.93;;;26.10;91.00;;;24.91;43.96;101458.97;4996576;28;20465;-75
2021/06/11 08:57:25;;;;;;;9.57;4.20;;;26.10;90.50;;;25.42;44.62;101459.44;5001212;28;20489;-75
2021/06/11 08:59:52;;;;;;;6.40;4.82;;;26.70;87.40;;;25.93;42.31;101458.00;5021082;28;20024;-75
2021/06/11 09:02:31;;;;;;;6.38;4.22;;;27.10;87.90;;;26.28;43.40;101451.72;4980503;28;20041;-75
2021/06/11 09:05:28;;;;;;;6.10;4.25;;;26.90;87.10;;;25.61;41.37;101453.09;4947482;28;20052;-75
2021/06/11 09:08:44;;;;;;;9.38;5.00;;;26.10;85.90;;;24.18;45.32;101462.19;4959076;28;20048;-74
2021/06/11 09:12:00;;;;;;;7.38;3.60;;;25.20;90.60;;;24.72;44.81;101452.63;4986632;28;20036;-75
2021/06/11 09:15:29;;;;;;;9.15;4.10;;;25.30;90.10;;;24.23;46.84;101467.13;4960146;28;20409;-75
2021/06/11 09:22:42;;;;;;;6.55;4.20;;;26.20;87.90;;;25.93;42.69;101456.13;4970728;28;20220;-75
2021/06/11 09:26:23;;;;;;;8.10;4.68;;;25.80;86.70;;;24.51;44.01;101466.31;4995365;28;20118;-75
2021/06/11 09:30:00;;;;;;;8.38;4.20;;;26.00;88.40;;;25.73;41.84;101458.09;4960102;28;20080;-75
2021/06/11 09:33:31;;;;;;;6.45;4.20;;;26.30;84.10;;;25.59;41.71;101453.22;4982580;28;20583;-75
2021/06/11 09:37:05;;;;;;;5.57;3.25;;;25.90;86.20;;;25.05;42.95;101454.91;4977603;28;20054;-75
2021/06/11 09:40:26;;;;;;;6.50;3.53;;;25.90;88.40;;;24.72;44.72;101452.63;4963707;28;20038;-75
2021/06/11 09:44:11;;;;;;;6.38;4.00;;;26.00;85.90;;;25.83;40.15;101452.66;4972095;28;20091;-74
2021/06/11 09:47:57;;;;;;;4.15;3.00;;;26.80;80.40;;;26.89;37.51;101446.38;4960964;28;20457;-75
2021/06/11 09:51:51;;;;;;;6.70;4.35;;;26.70;84.40;;;25.77;41.30;101447.88;4982011;28;20117;-75
2021/06/11 09:55:40;;;;;;;6.00;3.72;;;27.20;86.50;;;26.64;38.59;101432.75;4967287;28;20539;-75
2021/06/11 09:58:52;;;;;;;;;;;27.10;82.20;;;25.26;40.83;101435.84;4981004;28;20491;-75
2021/06/11 10:01:52;;;;;;;5.95;4.10;;;26.00;83.50;;;24.97;42.17;101442.22;4977509;28;20151;-74
2021/06/11 10:05:10;;;;;;;10.73;3.63;;;25.50;89.60;;;24.96;44.31;101444.03;4994714;28;20040;-75
2021/06/11 10:07:57;;;;;;;7.07;3.70;;;26.40;87.20;;;26.19;40.59;101441.84;4966115;28;20021;-76
2021/06/11 10:10:44;;;;;;;8.27;4.22;;;26.70;84.60;;;25.78;40.88;101441.47;4972038;28;20037;-76
2021/06/11 10:13:31;;;;;;;6.03;4.20;;;26.00;86.20;;;24.96;41.01;101444.03;4992464;28;20033;-76
2021/06/11 10:16:27;;;;;;;8.35;3.95;;;25.80;85.30;;;24.52;41.08;101449.13;4954302;28;20048;-76
2021/06/11 10:19:19;;;;;;;8.43;3.70;;;25.10;84.30;;;24.52;42.30;101445.59;4986866;28;20037;-76
2021/06/11 10:22:10;;;;;;;5.50;3.80;;;25.80;84.00;;;25.28;39.14;101431.16;4980033;28;20045;-77
2021/06/11 10:25:02;;;;;;;6.88;3.58;;;26.10;81.60;;;25.95;38.64;101437.09;4974774;28;20044;-77
2021/06/11 10:27:49;;;;;;;8.93;4.32;;;26.90;83.60;;;26.30;39.83;101424.56;4997460;28;20113;-77
2021/06/11 10:30:16;;;;;;;5.32;3.70;;;26.70;82.50;;;25.78;38.74;101433.38;5015240;28;20489;-77
2021/06/11 10:32:47;;;;;;;5.72;3.92;;;26.40;84.20;;;25.56;39.17;101429.28;5022600;28;20030;-76
2021/06/11 10:35:35;;;;;;;7.20;4.47;;;26.40;85.20;;;25.36;41.45;101428.56;5008720;28;20057;-76
2021/06/11 10:38:01;;;;;;;5.07;3.50;;;25.60;85.60;;;24.58;42.15;101422.63;5002158;28;20037;-77
2021/06/11 10:40:41;;;;;;;5.82;3.58;;;26.00;85.70;;;25.60;39.95;101422.59;4995356;28;20041;-77
2021/06/11 10:43:25;;;;;;;7.00;4.70;;;26.20;85.20;;;25.30;41.85;101429.16;5021962;28;20040;-76